sensor_id;sensor_type;location;lat;lon;timestamp;temperature;humidity
75022;SHT31;63583;49.976;20.182;2023-07-13T00:00:24;22.12;74.44
75022;SHT31;63583;49.976;20.182;2023-07-13T00:03:10;22.00;74.72
75022;SHT31;63583;49.976;20.182;2023-07-13T00:05:39;21.77;75.76
75022;SHT31;63583;49.976;20.182;2023-07-13T00:08:07;21.78;75.80
75022;SHT31;63583;49.976;20.182;2023-07-13T00:10:34;21.81;76.02
75022;SHT31;63583;49.976;20.182;2023-07-13T00:13:03;22.19;74.22
75022;SHT31;63583;49.976;20.182;2023-07-13T00:15:29;22.16;74.06
75022;SHT31;63583;49.976;20.182;2023-07-13T00:17:57;22.25;73.61
75022;SHT31;63583;49.976;20.182;2023-07-13T00:20:24;22.05;75.74
75022;SHT31;63583;49.976;20.182;2023-07-13T00:22:51;21.91;76.89
75022;SHT31;63583;49.976;20.182;2023-07-13T00:25:21;21.77;77.52
75022;SHT31;63583;49.976;20.182;2023-07-13T00:27:50;21.68;78.08
75022;SHT31;63583;49.976;20.182;2023-07-13T00:30:17;21.56;78.81
75022;SHT31;63583;49.976;20.182;2023-07-13T00:32:42;21.42;79.82
75022;SHT31;63583;49.976;20.182;2023-07-13T00:35:10;21.33;81.03
75022;SHT31;63583;49.976;20.182;2023-07-13T00:37:35;21.23;81.27
75022;SHT31;63583;49.976;20.182;2023-07-13T00:40:05;21.29;81.83
75022;SHT31;63583;49.976;20.182;2023-07-13T00:42:31;21.16;82.55
75022;SHT31;63583;49.976;20.182;2023-07-13T00:47:29;20.77;84.52
75022;SHT31;63583;49.976;20.182;2023-07-13T00:49:55;20.65;85.03
75022;SHT31;63583;49.976;20.182;2023-07-13T00:52:21;20.60;85.76
75022;SHT31;63583;49.976;20.182;2023-07-13T00:54:47;20.63;85.42
75022;SHT31;63583;49.976;20.182;2023-07-13T00:57:16;20.63;85.93
75022;SHT31;63583;49.976;20.182;2023-07-13T00:59:47;20.58;86.38
75022;SHT31;63583;49.976;20.182;2023-07-13T01:02:14;20.60;86.32
75022;SHT31;63583;49.976;20.182;2023-07-13T01:04:39;20.65;86.02
75022;SHT31;63583;49.976;20.182;2023-07-13T01:07:06;20.47;86.49
75022;SHT31;63583;49.976;20.182;2023-07-13T01:09:32;20.44;86.83
75022;SHT31;63583;49.976;20.182;2023-07-13T01:11:57;20.51;86.73
75022;SHT31;63583;49.976;20.182;2023-07-13T01:14:25;20.44;86.99
75022;SHT31;63583;49.976;20.182;2023-07-13T01:16:50;20.25;87.90
75022;SHT31;63583;49.976;20.182;2023-07-13T01:22:03;20.27;88.64
75022;SHT31;63583;49.976;20.182;2023-07-13T01:24:29;20.40;88.18
75022;SHT31;63583;49.976;20.182;2023-07-13T01:26:54;20.29;88.80
75022;SHT31;63583;49.976;20.182;2023-07-13T01:29:21;20.16;88.96
75022;SHT31;63583;49.976;20.182;2023-07-13T01:31:46;20.25;88.56
75022;SHT31;63583;49.976;20.182;2023-07-13T01:34:12;20.33;88.63
75022;SHT31;63583;49.976;20.182;2023-07-13T01:36:38;20.27;88.49
75022;SHT31;63583;49.976;20.182;2023-07-13T01:39:04;20.25;88.62
75022;SHT31;63583;49.976;20.182;2023-07-13T01:41:29;20.10;89.51
75022;SHT31;63583;49.976;20.182;2023-07-13T01:44:13;20.10;89.93
75022;SHT31;63583;49.976;20.182;2023-07-13T01:46:39;20.12;89.63
75022;SHT31;63583;49.976;20.182;2023-07-13T01:49:05;19.92;90.36
75022;SHT31;63583;49.976;20.182;2023-07-13T01:51:30;20.00;90.11
75022;SHT31;63583;49.976;20.182;2023-07-13T01:53:56;20.02;90.10
75022;SHT31;63583;49.976;20.182;2023-07-13T01:56:22;20.05;90.01
75022;SHT31;63583;49.976;20.182;2023-07-13T01:58:47;19.96;90.03
75022;SHT31;63583;49.976;20.182;2023-07-13T02:01:13;20.02;89.90
75022;SHT31;63583;49.976;20.182;2023-07-13T02:03:39;20.04;89.97
75022;SHT31;63583;49.976;20.182;2023-07-13T02:06:05;20.10;89.71
75022;SHT31;63583;49.976;20.182;2023-07-13T02:08:32;20.08;89.82
75022;SHT31;63583;49.976;20.182;2023-07-13T02:10:58;20.06;90.06
75022;SHT31;63583;49.976;20.182;2023-07-13T02:13:23;19.96;90.26
75022;SHT31;63583;49.976;20.182;2023-07-13T02:15:52;19.95;90.48
75022;SHT31;63583;49.976;20.182;2023-07-13T02:18:18;19.97;90.54
75022;SHT31;63583;49.976;20.182;2023-07-13T02:20:44;20.05;90.42
75022;SHT31;63583;49.976;20.182;2023-07-13T02:23:10;19.81;91.18
75022;SHT31;63583;49.976;20.182;2023-07-13T02:25:35;19.74;91.05
75022;SHT31;63583;49.976;20.182;2023-07-13T02:28:01;19.59;91.83
75022;SHT31;63583;49.976;20.182;2023-07-13T02:30:27;19.17;93.81
75022;SHT31;63583;49.976;20.182;2023-07-13T02:32:55;19.27;93.06
75022;SHT31;63583;49.976;20.182;2023-07-13T02:35:22;19.32;92.76
75022;SHT31;63583;49.976;20.182;2023-07-13T02:37:47;19.41;92.23
75022;SHT31;63583;49.976;20.182;2023-07-13T02:40:13;19.28;92.48
75022;SHT31;63583;49.976;20.182;2023-07-13T02:42:39;19.20;93.01
75022;SHT31;63583;49.976;20.182;2023-07-13T02:45:06;19.13;93.27
75022;SHT31;63583;49.976;20.182;2023-07-13T02:47:32;19.10;93.21
75022;SHT31;63583;49.976;20.182;2023-07-13T02:49:58;19.06;93.49
75022;SHT31;63583;49.976;20.182;2023-07-13T02:52:24;18.98;93.63
75022;SHT31;63583;49.976;20.182;2023-07-13T02:54:50;18.89;94.00
75022;SHT31;63583;49.976;20.182;2023-07-13T02:57:16;18.86;94.30
75022;SHT31;63583;49.976;20.182;2023-07-13T02:59:41;18.86;94.29
75022;SHT31;63583;49.976;20.182;2023-07-13T03:02:07;18.95;93.92
75022;SHT31;63583;49.976;20.182;2023-07-13T03:04:38;18.98;93.62
75022;SHT31;63583;49.976;20.182;2023-07-13T03:07:04;19.06;93.29
75022;SHT31;63583;49.976;20.182;2023-07-13T03:09:30;19.11;92.86
75022;SHT31;63583;49.976;20.182;2023-07-13T03:11:56;19.17;92.64
75022;SHT31;63583;49.976;20.182;2023-07-13T03:14:22;19.03;92.96
75022;SHT31;63583;49.976;20.182;2023-07-13T03:16:48;18.90;93.49
75022;SHT31;63583;49.976;20.182;2023-07-13T03:19:14;18.90;93.44
75022;SHT31;63583;49.976;20.182;2023-07-13T03:21:39;18.89;93.30
75022;SHT31;63583;49.976;20.182;2023-07-13T03:24:05;18.86;93.03
75022;SHT31;63583;49.976;20.182;2023-07-13T03:26:31;18.86;92.89
75022;SHT31;63583;49.976;20.182;2023-07-13T03:28:57;18.93;92.70
75022;SHT31;63583;49.976;20.182;2023-07-13T03:31:27;19.02;92.14
75022;SHT31;63583;49.976;20.182;2023-07-13T03:33:54;19.09;91.90
75022;SHT31;63583;49.976;20.182;2023-07-13T03:36:24;19.27;91.06
75022;SHT31;63583;49.976;20.182;2023-07-13T03:38:53;19.43;90.52
75022;SHT31;63583;49.976;20.182;2023-07-13T03:41:20;19.48;90.36
75022;SHT31;63583;49.976;20.182;2023-07-13T03:43:45;19.48;90.15
75022;SHT31;63583;49.976;20.182;2023-07-13T03:46:13;19.55;89.85
75022;SHT31;63583;49.976;20.182;2023-07-13T03:48:40;19.41;90.13
75022;SHT31;63583;49.976;20.182;2023-07-13T03:51:08;19.35;90.26
75022;SHT31;63583;49.976;20.182;2023-07-13T03:53:38;19.37;90.28
75022;SHT31;63583;49.976;20.182;2023-07-13T03:56:04;19.37;90.44
75022;SHT31;63583;49.976;20.182;2023-07-13T03:58:39;19.43;90.17
75022;SHT31;63583;49.976;20.182;2023-07-13T04:01:06;19.40;89.62
75022;SHT31;63583;49.976;20.182;2023-07-13T04:03:33;19.37;89.88
75022;SHT31;63583;49.976;20.182;2023-07-13T04:06:00;19.37;90.11
75022;SHT31;63583;49.976;20.182;2023-07-13T04:08:27;19.40;90.12
75022;SHT31;63583;49.976;20.182;2023-07-13T04:10:53;19.40;90.20
75022;SHT31;63583;49.976;20.182;2023-07-13T04:13:18;19.40;90.22
75022;SHT31;63583;49.976;20.182;2023-07-13T04:15:44;19.44;89.76
75022;SHT31;63583;49.976;20.182;2023-07-13T04:18:10;19.57;89.57
75022;SHT31;63583;49.976;20.182;2023-07-13T04:20:35;19.75;88.30
75022;SHT31;63583;49.976;20.182;2023-07-13T04:23:01;19.82;88.21
75022;SHT31;63583;49.976;20.182;2023-07-13T04:25:27;19.82;88.49
75022;SHT31;63583;49.976;20.182;2023-07-13T04:27:53;19.95;88.27
75022;SHT31;63583;49.976;20.182;2023-07-13T04:30:19;20.19;87.77
75022;SHT31;63583;49.976;20.182;2023-07-13T04:32:45;20.48;86.86
75022;SHT31;63583;49.976;20.182;2023-07-13T04:35:11;20.72;86.44
75022;SHT31;63583;49.976;20.182;2023-07-13T04:37:37;20.92;85.99
75022;SHT31;63583;49.976;20.182;2023-07-13T04:40:03;21.15;85.15
75022;SHT31;63583;49.976;20.182;2023-07-13T04:42:29;21.19;84.71
75022;SHT31;63583;49.976;20.182;2023-07-13T04:44:55;21.30;84.37
75022;SHT31;63583;49.976;20.182;2023-07-13T04:47:21;21.51;85.35
75022;SHT31;63583;49.976;20.182;2023-07-13T04:49:46;21.78;84.32
75022;SHT31;63583;49.976;20.182;2023-07-13T04:52:12;22.08;83.24
75022;SHT31;63583;49.976;20.182;2023-07-13T04:54:38;22.28;81.25
75022;SHT31;63583;49.976;20.182;2023-07-13T04:57:05;22.42;81.53
75022;SHT31;63583;49.976;20.182;2023-07-13T04:59:34;22.63;80.06
75022;SHT31;63583;49.976;20.182;2023-07-13T05:02:00;22.67;77.76
75022;SHT31;63583;49.976;20.182;2023-07-13T05:04:27;22.87;76.91
75022;SHT31;63583;49.976;20.182;2023-07-13T05:06:52;23.15;77.34
75022;SHT31;63583;49.976;20.182;2023-07-13T05:09:18;23.42;77.18
75022;SHT31;63583;49.976;20.182;2023-07-13T05:11:44;23.63;76.54
75022;SHT31;63583;49.976;20.182;2023-07-13T05:14:10;23.55;76.59
75022;SHT31;63583;49.976;20.182;2023-07-13T05:16:36;23.76;75.50
75022;SHT31;63583;49.976;20.182;2023-07-13T05:19:02;23.59;76.98
75022;SHT31;63583;49.976;20.182;2023-07-13T05:21:28;23.38;76.58
75022;SHT31;63583;49.976;20.182;2023-07-13T05:23:53;23.87;75.20
75022;SHT31;63583;49.976;20.182;2023-07-13T05:26:19;24.10;74.27
75022;SHT31;63583;49.976;20.182;2023-07-13T05:28:46;23.73;75.49
75022;SHT31;63583;49.976;20.182;2023-07-13T05:31:12;24.03;73.80
75022;SHT31;63583;49.976;20.182;2023-07-13T05:33:38;23.25;76.90
75022;SHT31;63583;49.976;20.182;2023-07-13T05:36:04;23.06;78.51
75022;SHT31;63583;49.976;20.182;2023-07-13T05:38:30;23.04;78.65
75022;SHT31;63583;49.976;20.182;2023-07-13T05:40:56;22.96;78.39
75022;SHT31;63583;49.976;20.182;2023-07-13T05:43:22;23.35;77.11
75022;SHT31;63583;49.976;20.182;2023-07-13T05:45:48;23.69;75.99
75022;SHT31;63583;49.976;20.182;2023-07-13T05:48:15;23.62;78.04
75022;SHT31;63583;49.976;20.182;2023-07-13T05:50:41;23.44;75.81
75022;SHT31;63583;49.976;20.182;2023-07-13T05:53:06;23.54;75.26
75022;SHT31;63583;49.976;20.182;2023-07-13T05:55:33;23.62;76.48
75022;SHT31;63583;49.976;20.182;2023-07-13T05:57:59;23.35;77.66
75022;SHT31;63583;49.976;20.182;2023-07-13T06:00:25;23.17;77.67
75022;SHT31;63583;49.976;20.182;2023-07-13T06:02:51;22.48;80.91
75022;SHT31;63583;49.976;20.182;2023-07-13T06:05:16;22.55;81.38
75022;SHT31;63583;49.976;20.182;2023-07-13T06:07:42;22.96;79.85
75022;SHT31;63583;49.976;20.182;2023-07-13T06:10:08;23.07;79.04
75022;SHT31;63583;49.976;20.182;2023-07-13T06:12:34;22.86;80.96
75022;SHT31;63583;49.976;20.182;2023-07-13T06:15:00;23.03;80.97
75022;SHT31;63583;49.976;20.182;2023-07-13T06:17:25;22.89;81.21
75022;SHT31;63583;49.976;20.182;2023-07-13T06:19:51;22.93;81.50
75022;SHT31;63583;49.976;20.182;2023-07-13T06:22:16;22.97;80.14
75022;SHT31;63583;49.976;20.182;2023-07-13T06:24:42;23.15;79.10
75022;SHT31;63583;49.976;20.182;2023-07-13T06:27:08;23.29;79.42
75022;SHT31;63583;49.976;20.182;2023-07-13T06:29:33;22.70;80.34
75022;SHT31;63583;49.976;20.182;2023-07-13T06:31:59;22.86;81.55
75022;SHT31;63583;49.976;20.182;2023-07-13T06:34:24;22.79;81.38
75022;SHT31;63583;49.976;20.182;2023-07-13T06:36:50;23.15;79.99
75022;SHT31;63583;49.976;20.182;2023-07-13T06:39:16;22.87;80.37
75022;SHT31;63583;49.976;20.182;2023-07-13T06:41:41;23.00;80.83
75022;SHT31;63583;49.976;20.182;2023-07-13T06:44:07;23.22;80.31
75022;SHT31;63583;49.976;20.182;2023-07-13T06:46:32;23.48;78.83
75022;SHT31;63583;49.976;20.182;2023-07-13T06:48:58;23.75;79.44
75022;SHT31;63583;49.976;20.182;2023-07-13T06:51:24;23.55;77.31
75022;SHT31;63583;49.976;20.182;2023-07-13T06:53:51;23.24;78.90
75022;SHT31;63583;49.976;20.182;2023-07-13T06:56:17;23.66;78.48
75022;SHT31;63583;49.976;20.182;2023-07-13T06:58:43;23.68;79.17
75022;SHT31;63583;49.976;20.182;2023-07-13T07:01:09;23.77;78.86
75022;SHT31;63583;49.976;20.182;2023-07-13T07:03:35;23.59;78.94
75022;SHT31;63583;49.976;20.182;2023-07-13T07:06:27;24.02;77.27
75022;SHT31;63583;49.976;20.182;2023-07-13T07:08:53;24.18;76.90
75022;SHT31;63583;49.976;20.182;2023-07-13T07:11:24;24.37;77.82
75022;SHT31;63583;49.976;20.182;2023-07-13T07:13:51;24.13;77.32
75022;SHT31;63583;49.976;20.182;2023-07-13T07:16:18;24.28;77.62
75022;SHT31;63583;49.976;20.182;2023-07-13T07:18:44;24.34;78.30
75022;SHT31;63583;49.976;20.182;2023-07-13T07:21:10;24.41;77.64
75022;SHT31;63583;49.976;20.182;2023-07-13T07:23:36;24.45;77.62
75022;SHT31;63583;49.976;20.182;2023-07-13T07:26:01;24.43;76.26
75022;SHT31;63583;49.976;20.182;2023-07-13T07:28:27;24.24;78.04
75022;SHT31;63583;49.976;20.182;2023-07-13T07:30:58;24.48;76.44
75022;SHT31;63583;49.976;20.182;2023-07-13T07:33:24;24.45;78.76
75022;SHT31;63583;49.976;20.182;2023-07-13T07:35:51;24.33;77.75
75022;SHT31;63583;49.976;20.182;2023-07-13T07:38:16;24.02;77.46
75022;SHT31;63583;49.976;20.182;2023-07-13T07:40:42;24.14;77.11
75022;SHT31;63583;49.976;20.182;2023-07-13T07:43:10;24.21;77.41
75022;SHT31;63583;49.976;20.182;2023-07-13T07:45:36;24.35;76.93
75022;SHT31;63583;49.976;20.182;2023-07-13T07:48:04;24.60;76.40
75022;SHT31;63583;49.976;20.182;2023-07-13T07:50:30;24.69;74.17
75022;SHT31;63583;49.976;20.182;2023-07-13T07:52:56;24.44;75.51
75022;SHT31;63583;49.976;20.182;2023-07-13T07:55:22;24.67;74.70
75022;SHT31;63583;49.976;20.182;2023-07-13T07:57:48;24.41;72.84
75022;SHT31;63583;49.976;20.182;2023-07-13T08:00:14;24.25;73.97
75022;SHT31;63583;49.976;20.182;2023-07-13T08:02:41;24.44;73.89
75022;SHT31;63583;49.976;20.182;2023-07-13T08:05:08;24.64;73.49
75022;SHT31;63583;49.976;20.182;2023-07-13T08:07:34;24.93;70.91
75022;SHT31;63583;49.976;20.182;2023-07-13T08:10:00;24.99;70.13
75022;SHT31;63583;49.976;20.182;2023-07-13T08:12:26;25.13;69.98
75022;SHT31;63583;49.976;20.182;2023-07-13T08:14:52;25.30;70.26
75022;SHT31;63583;49.976;20.182;2023-07-13T08:17:19;25.63;71.71
75022;SHT31;63583;49.976;20.182;2023-07-13T08:19:45;25.80;72.48
75022;SHT31;63583;49.976;20.182;2023-07-13T08:22:11;25.89;69.83
75022;SHT31;63583;49.976;20.182;2023-07-13T08:24:37;25.63;70.46
75022;SHT31;63583;49.976;20.182;2023-07-13T08:27:03;25.50;71.48
75022;SHT31;63583;49.976;20.182;2023-07-13T08:29:28;25.56;70.77
75022;SHT31;63583;49.976;20.182;2023-07-13T08:31:57;25.75;70.55
75022;SHT31;63583;49.976;20.182;2023-07-13T08:34:23;26.01;69.12
75022;SHT31;63583;49.976;20.182;2023-07-13T08:36:49;26.11;68.59
75022;SHT31;63583;49.976;20.182;2023-07-13T08:39:14;26.31;68.30
75022;SHT31;63583;49.976;20.182;2023-07-13T08:41:40;26.26;67.58
75022;SHT31;63583;49.976;20.182;2023-07-13T08:44:16;26.05;69.23
75022;SHT31;63583;49.976;20.182;2023-07-13T08:46:45;25.70;68.52
75022;SHT31;63583;49.976;20.182;2023-07-13T08:49:21;25.34;70.25
75022;SHT31;63583;49.976;20.182;2023-07-13T08:52:05;25.95;67.55
75022;SHT31;63583;49.976;20.182;2023-07-13T08:54:36;26.21;67.91
75022;SHT31;63583;49.976;20.182;2023-07-13T08:57:17;26.46;65.93
75022;SHT31;63583;49.976;20.182;2023-07-13T08:59:44;26.42;64.41
75022;SHT31;63583;49.976;20.182;2023-07-13T09:02:25;26.29;66.01
75022;SHT31;63583;49.976;20.182;2023-07-13T09:05:14;26.19;67.02
75022;SHT31;63583;49.976;20.182;2023-07-13T09:07:58;26.42;64.71
75022;SHT31;63583;49.976;20.182;2023-07-13T09:10:32;25.96;66.56
75022;SHT31;63583;49.976;20.182;2023-07-13T09:13:10;26.22;65.39
75022;SHT31;63583;49.976;20.182;2023-07-13T09:15:43;25.98;64.99
75022;SHT31;63583;49.976;20.182;2023-07-13T09:18:33;26.23;64.76
75022;SHT31;63583;49.976;20.182;2023-07-13T09:21:03;25.86;64.83
75022;SHT31;63583;49.976;20.182;2023-07-13T09:23:31;25.67;65.23
75022;SHT31;63583;49.976;20.182;2023-07-13T09:26:14;25.58;64.94
75022;SHT31;63583;49.976;20.182;2023-07-13T09:28:43;25.40;65.23
75022;SHT31;63583;49.976;20.182;2023-07-13T09:31:30;25.03;66.59
75022;SHT31;63583;49.976;20.182;2023-07-13T09:33:57;25.24;67.29
75022;SHT31;63583;49.976;20.182;2023-07-13T09:36:28;25.24;65.95
75022;SHT31;63583;49.976;20.182;2023-07-13T09:39:05;25.26;64.77
75022;SHT31;63583;49.976;20.182;2023-07-13T09:41:57;25.17;63.72
75022;SHT31;63583;49.976;20.182;2023-07-13T09:44:54;24.99;64.39
75022;SHT31;63583;49.976;20.182;2023-07-13T09:47:25;24.93;66.16
75022;SHT31;63583;49.976;20.182;2023-07-13T09:52:21;24.85;66.57
75022;SHT31;63583;49.976;20.182;2023-07-13T09:54:49;24.69;66.88
75022;SHT31;63583;49.976;20.182;2023-07-13T09:57:19;24.61;68.99
75022;SHT31;63583;49.976;20.182;2023-07-13T09:59:50;24.69;68.17
75022;SHT31;63583;49.976;20.182;2023-07-13T10:02:27;24.34;68.87
75022;SHT31;63583;49.976;20.182;2023-07-13T10:04:59;24.43;68.96
75022;SHT31;63583;49.976;20.182;2023-07-13T10:07:25;24.57;69.41
75022;SHT31;63583;49.976;20.182;2023-07-13T10:09:55;24.40;68.29
75022;SHT31;63583;49.976;20.182;2023-07-13T10:12:22;24.35;68.90
75022;SHT31;63583;49.976;20.182;2023-07-13T10:14:55;24.27;70.08
75022;SHT31;63583;49.976;20.182;2023-07-13T10:17:27;24.23;70.34
75022;SHT31;63583;49.976;20.182;2023-07-13T10:19:59;24.18;68.97
75022;SHT31;63583;49.976;20.182;2023-07-13T10:24:59;24.16;70.06
75022;SHT31;63583;49.976;20.182;2023-07-13T10:27:33;24.14;70.92
75022;SHT31;63583;49.976;20.182;2023-07-13T10:30:23;24.04;76.55
75022;SHT31;63583;49.976;20.182;2023-07-13T10:32:58;23.90;77.05
75022;SHT31;63583;49.976;20.182;2023-07-13T10:35:25;23.83;76.47
75022;SHT31;63583;49.976;20.182;2023-07-13T10:38:07;23.73;77.29
75022;SHT31;63583;49.976;20.182;2023-07-13T10:40:43;23.61;77.33
75022;SHT31;63583;49.976;20.182;2023-07-13T10:43:20;23.21;79.78
75022;SHT31;63583;49.976;20.182;2023-07-13T10:45:47;23.10;78.55
75022;SHT31;63583;49.976;20.182;2023-07-13T10:48:17;22.83;80.75
75022;SHT31;63583;49.976;20.182;2023-07-13T10:50:45;22.67;81.13
75022;SHT31;63583;49.976;20.182;2023-07-13T10:53:30;22.60;81.59
75022;SHT31;63583;49.976;20.182;2023-07-13T10:56:22;22.25;84.22
75022;SHT31;63583;49.976;20.182;2023-07-13T10:59:46;21.95;86.09
75022;SHT31;63583;49.976;20.182;2023-07-13T11:02:01;21.86;86.94
75022;SHT31;63583;49.976;20.182;2023-07-13T11:04:43;21.38;87.77
75022;SHT31;63583;49.976;20.182;2023-07-13T11:07:20;21.35;87.72
75022;SHT31;63583;49.976;20.182;2023-07-13T11:09:51;21.01;87.82
75022;SHT31;63583;49.976;20.182;2023-07-13T11:20:45;20.13;86.97
75022;SHT31;63583;49.976;20.182;2023-07-13T11:25:39;19.97;88.24
75022;SHT31;63583;49.976;20.182;2023-07-13T11:38:42;20.12;88.95
75022;SHT31;63583;49.976;20.182;2023-07-13T11:41:23;20.05;89.51
75022;SHT31;63583;49.976;20.182;2023-07-13T11:43:53;20.12;89.57
75022;SHT31;63583;49.976;20.182;2023-07-13T11:46:25;19.89;89.77
75022;SHT31;63583;49.976;20.182;2023-07-13T11:48:52;19.89;88.16
75022;SHT31;63583;49.976;20.182;2023-07-13T11:51:27;19.55;88.61
75022;SHT31;63583;49.976;20.182;2023-07-13T11:53:55;19.16;88.76
75022;SHT31;63583;49.976;20.182;2023-07-13T11:56:23;19.04;89.05
75022;SHT31;63583;49.976;20.182;2023-07-13T11:58:51;18.76;89.72
75022;SHT31;63583;49.976;20.182;2023-07-13T12:01:23;18.59;90.93
75022;SHT31;63583;49.976;20.182;2023-07-13T12:03:50;18.68;89.26
75022;SHT31;63583;49.976;20.182;2023-07-13T12:06:26;18.54;91.54
75022;SHT31;63583;49.976;20.182;2023-07-13T12:08:59;18.55;90.76
75022;SHT31;63583;49.976;20.182;2023-07-13T12:11:26;18.34;92.64
75022;SHT31;63583;49.976;20.182;2023-07-13T12:13:52;18.06;94.25
75022;SHT31;63583;49.976;20.182;2023-07-13T12:16:29;17.65;95.47
75022;SHT31;63583;49.976;20.182;2023-07-13T12:19:01;17.53;96.08
75022;SHT31;63583;49.976;20.182;2023-07-13T12:21:37;17.24;96.67
75022;SHT31;63583;49.976;20.182;2023-07-13T12:24:04;17.18;96.84
75022;SHT31;63583;49.976;20.182;2023-07-13T12:26:31;17.12;97.02
75022;SHT31;63583;49.976;20.182;2023-07-13T12:29:01;17.01;97.71
75022;SHT31;63583;49.976;20.182;2023-07-13T12:31:31;17.04;97.43
75022;SHT31;63583;49.976;20.182;2023-07-13T12:36:24;16.81;97.31
75022;SHT31;63583;49.976;20.182;2023-07-13T12:38:50;16.73;97.63
75022;SHT31;63583;49.976;20.182;2023-07-13T12:41:16;16.74;97.69
75022;SHT31;63583;49.976;20.182;2023-07-13T12:43:45;16.70;97.89
75022;SHT31;63583;49.976;20.182;2023-07-13T12:46:19;16.76;97.65
75022;SHT31;63583;49.976;20.182;2023-07-13T12:48:51;16.72;97.41
75022;SHT31;63583;49.976;20.182;2023-07-13T12:51:22;16.80;97.55
75022;SHT31;63583;49.976;20.182;2023-07-13T12:53:50;16.74;97.41
75022;SHT31;63583;49.976;20.182;2023-07-13T12:56:23;16.76;97.21
75022;SHT31;63583;49.976;20.182;2023-07-13T12:58:57;16.73;97.42
75022;SHT31;63583;49.976;20.182;2023-07-13T13:01:29;16.76;97.48
75022;SHT31;63583;49.976;20.182;2023-07-13T13:03:55;16.76;97.37
75022;SHT31;63583;49.976;20.182;2023-07-13T13:08:52;16.91;97.76
75022;SHT31;63583;49.976;20.182;2023-07-13T13:11:19;16.93;97.32
75022;SHT31;63583;49.976;20.182;2023-07-13T13:13:46;16.94;97.35
75022;SHT31;63583;49.976;20.182;2023-07-13T13:16:17;16.99;97.74
75022;SHT31;63583;49.976;20.182;2023-07-13T13:18:45;17.00;97.63
75022;SHT31;63583;49.976;20.182;2023-07-13T13:21:11;17.04;98.23
75022;SHT31;63583;49.976;20.182;2023-07-13T13:23:37;17.10;97.94
75022;SHT31;63583;49.976;20.182;2023-07-13T13:26:04;17.11;97.52
75022;SHT31;63583;49.976;20.182;2023-07-13T13:28:31;17.20;98.03
75022;SHT31;63583;49.976;20.182;2023-07-13T13:30:57;17.28;97.99
75022;SHT31;63583;49.976;20.182;2023-07-13T13:33:23;17.38;98.37
75022;SHT31;63583;49.976;20.182;2023-07-13T13:35:49;17.49;97.79
75022;SHT31;63583;49.976;20.182;2023-07-13T13:38:17;17.66;98.31
75022;SHT31;63583;49.976;20.182;2023-07-13T13:40:45;17.77;98.09
75022;SHT31;63583;49.976;20.182;2023-07-13T13:43:18;17.85;98.15
75022;SHT31;63583;49.976;20.182;2023-07-13T13:45:45;17.90;97.94
75022;SHT31;63583;49.976;20.182;2023-07-13T13:48:16;18.03;97.76
75022;SHT31;63583;49.976;20.182;2023-07-13T13:50:43;18.04;97.08
75022;SHT31;63583;49.976;20.182;2023-07-13T13:53:13;18.15;97.24
75022;SHT31;63583;49.976;20.182;2023-07-13T13:55:39;18.20;97.53
75022;SHT31;63583;49.976;20.182;2023-07-13T13:58:08;18.27;96.67
75022;SHT31;63583;49.976;20.182;2023-07-13T14:00:35;18.35;96.45
75022;SHT31;63583;49.976;20.182;2023-07-13T14:03:01;18.49;96.92
75022;SHT31;63583;49.976;20.182;2023-07-13T14:05:27;18.49;96.16
75022;SHT31;63583;49.976;20.182;2023-07-13T14:07:53;18.58;96.17
75022;SHT31;63583;49.976;20.182;2023-07-13T14:10:20;18.69;95.58
75022;SHT31;63583;49.976;20.182;2023-07-13T14:12:48;18.88;96.28
75022;SHT31;63583;49.976;20.182;2023-07-13T14:15:27;19.10;95.68
75022;SHT31;63583;49.976;20.182;2023-07-13T14:17:54;19.21;95.79
75022;SHT31;63583;49.976;20.182;2023-07-13T14:20:22;19.47;94.98
75022;SHT31;63583;49.976;20.182;2023-07-13T14:22:50;19.62;94.40
75022;SHT31;63583;49.976;20.182;2023-07-13T14:25:16;19.83;94.56
75022;SHT31;63583;49.976;20.182;2023-07-13T14:27:44;19.86;93.09
75022;SHT31;63583;49.976;20.182;2023-07-13T14:30:14;19.61;89.95
75022;SHT31;63583;49.976;20.182;2023-07-13T14:32:41;19.61;90.94
75022;SHT31;63583;49.976;20.182;2023-07-13T14:35:14;19.62;92.82
75022;SHT31;63583;49.976;20.182;2023-07-13T14:37:41;19.62;91.85
75022;SHT31;63583;49.976;20.182;2023-07-13T14:40:19;19.67;91.84
75022;SHT31;63583;49.976;20.182;2023-07-13T14:42:47;19.71;90.35
75022;SHT31;63583;49.976;20.182;2023-07-13T14:45:19;19.72;92.50
75022;SHT31;63583;49.976;20.182;2023-07-13T14:47:46;19.71;91.39
75022;SHT31;63583;49.976;20.182;2023-07-13T14:52:39;19.47;91.15
75022;SHT31;63583;49.976;20.182;2023-07-13T14:55:10;19.44;90.47
75022;SHT31;63583;49.976;20.182;2023-07-13T14:57:36;19.46;91.42
75022;SHT31;63583;49.976;20.182;2023-07-13T15:00:05;19.48;91.09
75022;SHT31;63583;49.976;20.182;2023-07-13T15:02:36;19.54;90.54
75022;SHT31;63583;49.976;20.182;2023-07-13T15:05:12;19.68;90.75
75022;SHT31;63583;49.976;20.182;2023-07-13T15:07:38;19.77;90.41
75022;SHT31;63583;49.976;20.182;2023-07-13T15:12:39;19.83;91.85
75022;SHT31;63583;49.976;20.182;2023-07-13T15:15:05;19.81;90.34
75022;SHT31;63583;49.976;20.182;2023-07-13T15:17:36;19.74;90.05
75022;SHT31;63583;49.976;20.182;2023-07-13T15:20:21;19.79;88.67
75022;SHT31;63583;49.976;20.182;2023-07-13T15:22:49;19.69;88.40
75022;SHT31;63583;49.976;20.182;2023-07-13T15:25:19;19.54;88.40
75022;SHT31;63583;49.976;20.182;2023-07-13T15:27:46;19.71;89.16
75022;SHT31;63583;49.976;20.182;2023-07-13T15:30:12;19.57;89.94
75022;SHT31;63583;49.976;20.182;2023-07-13T15:32:38;19.51;89.07
75022;SHT31;63583;49.976;20.182;2023-07-13T15:35:08;19.38;89.37
75022;SHT31;63583;49.976;20.182;2023-07-13T15:37:38;19.34;90.77
75022;SHT31;63583;49.976;20.182;2023-07-13T15:40:04;19.40;89.50
75022;SHT31;63583;49.976;20.182;2023-07-13T15:42:30;19.55;89.66
75022;SHT31;63583;49.976;20.182;2023-07-13T15:44:55;19.72;88.43
75022;SHT31;63583;49.976;20.182;2023-07-13T15:47:21;19.72;87.19
75022;SHT31;63583;49.976;20.182;2023-07-13T15:49:47;19.67;89.16
75022;SHT31;63583;49.976;20.182;2023-07-13T15:52:17;19.62;88.15
75022;SHT31;63583;49.976;20.182;2023-07-13T15:54:45;19.64;88.76
75022;SHT31;63583;49.976;20.182;2023-07-13T15:57:12;19.57;89.46
75022;SHT31;63583;49.976;20.182;2023-07-13T15:59:39;19.57;89.62
75022;SHT31;63583;49.976;20.182;2023-07-13T16:02:19;19.50;88.76
75022;SHT31;63583;49.976;20.182;2023-07-13T16:04:46;19.46;89.50